sensor_id;sensor_type;location;lat;lon;timestamp;temperature;humidity
56729;DHT22;42612;52.232;7.560;2023-06-14T00:01:45;25.90;29.80
56729;DHT22;42612;52.232;7.560;2023-06-14T00:04:12;25.80;29.90
56729;DHT22;42612;52.232;7.560;2023-06-14T00:06:38;25.80;29.90
56729;DHT22;42612;52.232;7.560;2023-06-14T00:09:04;25.80;30.00
56729;DHT22;42612;52.232;7.560;2023-06-14T00:11:31;25.80;30.00
56729;DHT22;42612;52.232;7.560;2023-06-14T00:13:57;25.70;30.00
56729;DHT22;42612;52.232;7.560;2023-06-14T00:16:23;25.70;30.00
56729;DHT22;42612;52.232;7.560;2023-06-14T00:18:49;25.70;30.20
56729;DHT22;42612;52.232;7.560;2023-06-14T00:21:17;25.60;30.10
56729;DHT22;42612;52.232;7.560;2023-06-14T00:23:43;25.60;30.10
56729;DHT22;42612;52.232;7.560;2023-06-14T00:26:09;25.60;30.30
56729;DHT22;42612;52.232;7.560;2023-06-14T00:28:34;25.50;30.30
56729;DHT22;42612;52.232;7.560;2023-06-14T00:31:00;25.50;30.40
56729;DHT22;42612;52.232;7.560;2023-06-14T00:33:26;25.40;30.40
56729;DHT22;42612;52.232;7.560;2023-06-14T00:35:51;25.40;30.50
56729;DHT22;42612;52.232;7.560;2023-06-14T00:38:19;25.40;30.60
56729;DHT22;42612;52.232;7.560;2023-06-14T00:40:46;25.30;30.60
56729;DHT22;42612;52.232;7.560;2023-06-14T00:43:12;25.30;30.60
56729;DHT22;42612;52.232;7.560;2023-06-14T00:45:38;25.30;30.70
56729;DHT22;42612;52.232;7.560;2023-06-14T00:48:04;25.20;30.70
56729;DHT22;42612;52.232;7.560;2023-06-14T00:50:32;25.20;30.90
56729;DHT22;42612;52.232;7.560;2023-06-14T00:53:01;25.20;30.90
56729;DHT22;42612;52.232;7.560;2023-06-14T00:55:28;25.20;31.00
56729;DHT22;42612;52.232;7.560;2023-06-14T00:57:55;25.10;31.00
56729;DHT22;42612;52.232;7.560;2023-06-14T01:00:21;25.10;31.00
56729;DHT22;42612;52.232;7.560;2023-06-14T01:02:47;25.10;31.10
56729;DHT22;42612;52.232;7.560;2023-06-14T01:05:15;25.10;31.10
56729;DHT22;42612;52.232;7.560;2023-06-14T01:08:05;25.00;31.10
56729;DHT22;42612;52.232;7.560;2023-06-14T01:11:01;25.00;31.50
56729;DHT22;42612;52.232;7.560;2023-06-14T01:13:35;25.00;31.50
56729;DHT22;42612;52.232;7.560;2023-06-14T01:16:05;25.00;31.50
56729;DHT22;42612;52.232;7.560;2023-06-14T01:18:32;24.90;31.60
56729;DHT22;42612;52.232;7.560;2023-06-14T01:20:58;24.90;31.50
56729;DHT22;42612;52.232;7.560;2023-06-14T01:23:25;24.90;31.60
56729;DHT22;42612;52.232;7.560;2023-06-14T01:25:58;24.80;31.60
56729;DHT22;42612;52.232;7.560;2023-06-14T01:28:26;24.80;31.60
56729;DHT22;42612;52.232;7.560;2023-06-14T01:31:01;24.80;31.80
56729;DHT22;42612;52.232;7.560;2023-06-14T01:33:47;24.80;31.80
56729;DHT22;42612;52.232;7.560;2023-06-14T01:36:15;24.80;31.80
56729;DHT22;42612;52.232;7.560;2023-06-14T01:38:43;24.70;31.90
56729;DHT22;42612;52.232;7.560;2023-06-14T01:41:10;24.70;32.00
56729;DHT22;42612;52.232;7.560;2023-06-14T01:43:36;24.70;32.00
56729;DHT22;42612;52.232;7.560;2023-06-14T01:46:03;24.60;32.00
56729;DHT22;42612;52.232;7.560;2023-06-14T01:48:29;24.60;32.10
56729;DHT22;42612;52.232;7.560;2023-06-14T01:50:55;24.60;32.10
56729;DHT22;42612;52.232;7.560;2023-06-14T01:53:20;24.50;32.20
56729;DHT22;42612;52.232;7.560;2023-06-14T01:55:46;24.50;32.20
56729;DHT22;42612;52.232;7.560;2023-06-14T01:58:14;24.50;33.00
56729;DHT22;42612;52.232;7.560;2023-06-14T02:00:41;24.50;32.20
56729;DHT22;42612;52.232;7.560;2023-06-14T02:03:09;24.50;32.20
56729;DHT22;42612;52.232;7.560;2023-06-14T02:05:34;24.50;32.20
56729;DHT22;42612;52.232;7.560;2023-06-14T02:08:00;24.40;32.20
56729;DHT22;42612;52.232;7.560;2023-06-14T02:10:26;24.40;32.40
56729;DHT22;42612;52.232;7.560;2023-06-14T02:12:52;24.30;32.50
56729;DHT22;42612;52.232;7.560;2023-06-14T02:15:17;24.30;32.50
56729;DHT22;42612;52.232;7.560;2023-06-14T02:17:47;24.30;32.60
56729;DHT22;42612;52.232;7.560;2023-06-14T02:20:14;24.30;32.70
56729;DHT22;42612;52.232;7.560;2023-06-14T02:22:40;24.20;32.80
56729;DHT22;42612;52.232;7.560;2023-06-14T02:25:07;24.10;32.80
56729;DHT22;42612;52.232;7.560;2023-06-14T02:27:34;24.10;32.90
56729;DHT22;42612;52.232;7.560;2023-06-14T02:30:00;24.10;32.90
56729;DHT22;42612;52.232;7.560;2023-06-14T02:32:26;24.10;33.00
56729;DHT22;42612;52.232;7.560;2023-06-14T02:34:53;24.10;33.10
56729;DHT22;42612;52.232;7.560;2023-06-14T02:37:19;24.00;33.10
56729;DHT22;42612;52.232;7.560;2023-06-14T02:39:45;24.00;33.20
56729;DHT22;42612;52.232;7.560;2023-06-14T02:42:10;24.00;33.20
56729;DHT22;42612;52.232;7.560;2023-06-14T02:44:36;24.00;33.30
56729;DHT22;42612;52.232;7.560;2023-06-14T02:47:02;24.00;33.30
56729;DHT22;42612;52.232;7.560;2023-06-14T02:49:29;23.90;33.30
56729;DHT22;42612;52.232;7.560;2023-06-14T02:51:55;24.00;33.40
56729;DHT22;42612;52.232;7.560;2023-06-14T02:54:21;23.90;33.40
56729;DHT22;42612;52.232;7.560;2023-06-14T02:56:47;23.90;33.50
56729;DHT22;42612;52.232;7.560;2023-06-14T02:59:13;23.80;33.50
56729;DHT22;42612;52.232;7.560;2023-06-14T03:01:39;23.80;33.50
56729;DHT22;42612;52.232;7.560;2023-06-14T03:04:07;23.80;33.70
56729;DHT22;42612;52.232;7.560;2023-06-14T03:06:33;23.80;33.70
56729;DHT22;42612;52.232;7.560;2023-06-14T03:09:00;23.80;33.70
56729;DHT22;42612;52.232;7.560;2023-06-14T03:11:29;23.70;34.50
56729;DHT22;42612;52.232;7.560;2023-06-14T03:13:55;23.70;34.00
56729;DHT22;42612;52.232;7.560;2023-06-14T03:16:22;23.70;33.90
56729;DHT22;42612;52.232;7.560;2023-06-14T03:18:52;23.70;33.90
56729;DHT22;42612;52.232;7.560;2023-06-14T03:21:21;23.60;34.00
56729;DHT22;42612;52.232;7.560;2023-06-14T03:23:47;23.60;34.30
56729;DHT22;42612;52.232;7.560;2023-06-14T03:26:14;23.60;34.10
56729;DHT22;42612;52.232;7.560;2023-06-14T03:28:43;23.60;34.20
56729;DHT22;42612;52.232;7.560;2023-06-14T03:31:11;23.60;34.30
56729;DHT22;42612;52.232;7.560;2023-06-14T03:33:37;23.50;34.30
56729;DHT22;42612;52.232;7.560;2023-06-14T03:36:03;23.50;34.40
56729;DHT22;42612;52.232;7.560;2023-06-14T03:38:30;23.50;34.50
56729;DHT22;42612;52.232;7.560;2023-06-14T03:40:56;23.50;34.50
56729;DHT22;42612;52.232;7.560;2023-06-14T03:43:22;23.40;34.50
56729;DHT22;42612;52.232;7.560;2023-06-14T03:45:47;23.40;34.70
56729;DHT22;42612;52.232;7.560;2023-06-14T03:48:13;23.40;34.70
56729;DHT22;42612;52.232;7.560;2023-06-14T03:50:39;23.40;34.80
56729;DHT22;42612;52.232;7.560;2023-06-14T03:53:05;23.40;34.80
56729;DHT22;42612;52.232;7.560;2023-06-14T03:55:31;23.40;34.80
56729;DHT22;42612;52.232;7.560;2023-06-14T03:57:57;23.30;34.90
56729;DHT22;42612;52.232;7.560;2023-06-14T04:00:23;23.40;35.70
56729;DHT22;42612;52.232;7.560;2023-06-14T04:02:49;23.30;35.10
56729;DHT22;42612;52.232;7.560;2023-06-14T04:05:14;23.30;35.10
56729;DHT22;42612;52.232;7.560;2023-06-14T04:07:42;23.30;35.10
56729;DHT22;42612;52.232;7.560;2023-06-14T04:10:11;23.30;35.10
56729;DHT22;42612;52.232;7.560;2023-06-14T04:12:38;23.30;35.20
56729;DHT22;42612;52.232;7.560;2023-06-14T04:15:04;23.30;35.20
56729;DHT22;42612;52.232;7.560;2023-06-14T04:17:32;23.30;35.30
56729;DHT22;42612;52.232;7.560;2023-06-14T04:19:59;23.20;35.30
56729;DHT22;42612;52.232;7.560;2023-06-14T04:22:28;23.20;35.50
56729;DHT22;42612;52.232;7.560;2023-06-14T04:24:54;23.20;35.30
56729;DHT22;42612;52.232;7.560;2023-06-14T04:27:25;23.20;35.40
56729;DHT22;42612;52.232;7.560;2023-06-14T04:29:54;23.20;35.40
56729;DHT22;42612;52.232;7.560;2023-06-14T04:32:28;23.20;35.40
56729;DHT22;42612;52.232;7.560;2023-06-14T04:34:59;23.20;35.30
56729;DHT22;42612;52.232;7.560;2023-06-14T04:37:29;23.20;35.40
56729;DHT22;42612;52.232;7.560;2023-06-14T04:39:55;23.20;35.50
56729;DHT22;42612;52.232;7.560;2023-06-14T04:42:22;23.20;35.60
56729;DHT22;42612;52.232;7.560;2023-06-14T04:44:51;23.20;35.70
56729;DHT22;42612;52.232;7.560;2023-06-14T04:47:20;23.20;35.70
56729;DHT22;42612;52.232;7.560;2023-06-14T04:49:46;23.20;35.80
56729;DHT22;42612;52.232;7.560;2023-06-14T04:52:12;23.20;35.80
56729;DHT22;42612;52.232;7.560;2023-06-14T04:54:41;23.20;36.00
56729;DHT22;42612;52.232;7.560;2023-06-14T04:57:08;23.20;36.00
56729;DHT22;42612;52.232;7.560;2023-06-14T04:59:57;23.20;36.00
56729;DHT22;42612;52.232;7.560;2023-06-14T05:02:23;23.20;36.00
56729;DHT22;42612;52.232;7.560;2023-06-14T05:04:50;23.20;35.90
56729;DHT22;42612;52.232;7.560;2023-06-14T05:07:15;23.20;36.00
56729;DHT22;42612;52.232;7.560;2023-06-14T05:09:42;23.20;36.00
56729;DHT22;42612;52.232;7.560;2023-06-14T05:12:07;23.20;36.10
56729;DHT22;42612;52.232;7.560;2023-06-14T05:14:34;23.20;36.30
56729;DHT22;42612;52.232;7.560;2023-06-14T05:17:00;23.20;36.20
56729;DHT22;42612;52.232;7.560;2023-06-14T05:19:26;23.20;36.20
56729;DHT22;42612;52.232;7.560;2023-06-14T05:21:52;23.20;36.30
56729;DHT22;42612;52.232;7.560;2023-06-14T05:24:18;23.30;36.40
56729;DHT22;42612;52.232;7.560;2023-06-14T05:26:44;23.30;36.30
56729;DHT22;42612;52.232;7.560;2023-06-14T05:29:10;23.30;36.40
56729;DHT22;42612;52.232;7.560;2023-06-14T05:31:36;23.30;36.50
56729;DHT22;42612;52.232;7.560;2023-06-14T05:34:02;23.30;36.50
56729;DHT22;42612;52.232;7.560;2023-06-14T05:36:27;23.40;36.70
56729;DHT22;42612;52.232;7.560;2023-06-14T05:38:54;23.40;36.60
56729;DHT22;42612;52.232;7.560;2023-06-14T05:41:24;23.40;36.70
56729;DHT22;42612;52.232;7.560;2023-06-14T05:43:55;23.40;36.60
56729;DHT22;42612;52.232;7.560;2023-06-14T05:46:22;23.50;36.70
56729;DHT22;42612;52.232;7.560;2023-06-14T05:48:51;23.50;36.60
56729;DHT22;42612;52.232;7.560;2023-06-14T05:51:17;23.50;36.80
56729;DHT22;42612;52.232;7.560;2023-06-14T05:53:53;23.50;36.70
56729;DHT22;42612;52.232;7.560;2023-06-14T05:56:19;23.60;37.20
56729;DHT22;42612;52.232;7.560;2023-06-14T05:58:46;23.60;36.70
56729;DHT22;42612;52.232;7.560;2023-06-14T06:01:13;23.60;36.60
56729;DHT22;42612;52.232;7.560;2023-06-14T06:03:39;23.60;36.70
56729;DHT22;42612;52.232;7.560;2023-06-14T06:06:05;23.60;36.60
56729;DHT22;42612;52.232;7.560;2023-06-14T06:08:30;23.70;36.70
56729;DHT22;42612;52.232;7.560;2023-06-14T06:10:57;23.60;36.60
56729;DHT22;42612;52.232;7.560;2023-06-14T06:13:22;23.60;36.50
56729;DHT22;42612;52.232;7.560;2023-06-14T06:15:48;23.70;36.60
56729;DHT22;42612;52.232;7.560;2023-06-14T06:18:14;23.70;36.50
56729;DHT22;42612;52.232;7.560;2023-06-14T06:20:40;23.70;36.40
56729;DHT22;42612;52.232;7.560;2023-06-14T06:23:05;23.70;36.30
56729;DHT22;42612;52.232;7.560;2023-06-14T06:25:31;23.70;36.30
56729;DHT22;42612;52.232;7.560;2023-06-14T06:27:57;23.70;36.30
56729;DHT22;42612;52.232;7.560;2023-06-14T06:30:23;23.70;36.20
56729;DHT22;42612;52.232;7.560;2023-06-14T06:32:50;23.80;36.20
56729;DHT22;42612;52.232;7.560;2023-06-14T06:35:16;23.80;36.20
56729;DHT22;42612;52.232;7.560;2023-06-14T06:37:42;23.80;36.40
56729;DHT22;42612;52.232;7.560;2023-06-14T06:40:08;23.80;36.40
56729;DHT22;42612;52.232;7.560;2023-06-14T06:42:35;23.80;36.30
56729;DHT22;42612;52.232;7.560;2023-06-14T06:45:01;23.80;36.20
56729;DHT22;42612;52.232;7.560;2023-06-14T06:47:27;23.90;37.20
56729;DHT22;42612;52.232;7.560;2023-06-14T06:49:53;23.90;36.50
56729;DHT22;42612;52.232;7.560;2023-06-14T06:52:18;23.90;36.50
56729;DHT22;42612;52.232;7.560;2023-06-14T06:54:44;23.90;36.30
56729;DHT22;42612;52.232;7.560;2023-06-14T06:57:10;24.00;36.40
56729;DHT22;42612;52.232;7.560;2023-06-14T06:59:36;23.90;36.40
56729;DHT22;42612;52.232;7.560;2023-06-14T07:02:04;24.00;36.80
56729;DHT22;42612;52.232;7.560;2023-06-14T07:04:30;24.00;36.20
56729;DHT22;42612;52.232;7.560;2023-06-14T07:06:56;24.00;36.10
56729;DHT22;42612;52.232;7.560;2023-06-14T07:09:22;24.00;35.80
56729;DHT22;42612;52.232;7.560;2023-06-14T07:11:49;24.10;36.00
56729;DHT22;42612;52.232;7.560;2023-06-14T07:14:15;24.10;35.90
56729;DHT22;42612;52.232;7.560;2023-06-14T07:16:41;24.10;36.20
56729;DHT22;42612;52.232;7.560;2023-06-14T07:19:08;24.20;35.90
56729;DHT22;42612;52.232;7.560;2023-06-14T07:21:34;24.20;35.80
56729;DHT22;42612;52.232;7.560;2023-06-14T07:24:03;24.30;35.80
56729;DHT22;42612;52.232;7.560;2023-06-14T07:26:31;24.30;35.60
56729;DHT22;42612;52.232;7.560;2023-06-14T07:28:57;24.30;35.50
56729;DHT22;42612;52.232;7.560;2023-06-14T07:31:23;24.30;35.50
56729;DHT22;42612;52.232;7.560;2023-06-14T07:33:49;24.40;35.50
56729;DHT22;42612;52.232;7.560;2023-06-14T07:36:14;24.40;35.60
56729;DHT22;42612;52.232;7.560;2023-06-14T07:38:40;24.40;35.70
56729;DHT22;42612;52.232;7.560;2023-06-14T07:41:06;24.40;35.60
56729;DHT22;42612;52.232;7.560;2023-06-14T07:43:32;24.50;35.60
56729;DHT22;42612;52.232;7.560;2023-06-14T07:45:58;24.50;35.50
56729;DHT22;42612;52.232;7.560;2023-06-14T07:48:23;24.50;35.30
56729;DHT22;42612;52.232;7.560;2023-06-14T07:50:49;24.60;35.00
56729;DHT22;42612;52.232;7.560;2023-06-14T07:53:15;24.60;35.00
56729;DHT22;42612;52.232;7.560;2023-06-14T07:55:40;24.60;34.90
56729;DHT22;42612;52.232;7.560;2023-06-14T07:58:08;24.60;35.10
56729;DHT22;42612;52.232;7.560;2023-06-14T08:00:35;24.60;35.00
56729;DHT22;42612;52.232;7.560;2023-06-14T08:03:01;24.70;35.10
56729;DHT22;42612;52.232;7.560;2023-06-14T08:05:27;24.70;35.20
56729;DHT22;42612;52.232;7.560;2023-06-14T08:07:54;24.70;34.90
56729;DHT22;42612;52.232;7.560;2023-06-14T08:10:21;24.70;34.90
56729;DHT22;42612;52.232;7.560;2023-06-14T08:12:47;24.70;34.80
56729;DHT22;42612;52.232;7.560;2023-06-14T08:15:17;24.80;34.70
56729;DHT22;42612;52.232;7.560;2023-06-14T08:17:43;24.80;34.60
56729;DHT22;42612;52.232;7.560;2023-06-14T08:20:10;24.70;34.50
56729;DHT22;42612;52.232;7.560;2023-06-14T08:22:37;24.80;34.60
56729;DHT22;42612;52.232;7.560;2023-06-14T08:25:03;24.80;34.60
56729;DHT22;42612;52.232;7.560;2023-06-14T08:27:29;24.80;34.60
56729;DHT22;42612;52.232;7.560;2023-06-14T08:29:55;24.90;34.60
56729;DHT22;42612;52.232;7.560;2023-06-14T08:32:21;24.90;34.60
56729;DHT22;42612;52.232;7.560;2023-06-14T08:34:47;24.90;34.40
56729;DHT22;42612;52.232;7.560;2023-06-14T08:37:13;24.90;34.50
56729;DHT22;42612;52.232;7.560;2023-06-14T08:39:39;24.90;34.50
56729;DHT22;42612;52.232;7.560;2023-06-14T08:42:05;25.00;34.50
56729;DHT22;42612;52.232;7.560;2023-06-14T08:44:33;25.00;34.60
56729;DHT22;42612;52.232;7.560;2023-06-14T08:47:00;25.00;34.50
56729;DHT22;42612;52.232;7.560;2023-06-14T08:49:26;25.10;34.40
56729;DHT22;42612;52.232;7.560;2023-06-14T08:51:59;25.10;34.20
56729;DHT22;42612;52.232;7.560;2023-06-14T08:54:27;25.10;33.80
56729;DHT22;42612;52.232;7.560;2023-06-14T08:56:56;25.20;33.90
56729;DHT22;42612;52.232;7.560;2023-06-14T08:59:25;25.20;33.80
56729;DHT22;42612;52.232;7.560;2023-06-14T09:01:52;25.20;33.40
56729;DHT22;42612;52.232;7.560;2023-06-14T09:04:22;25.30;33.40
56729;DHT22;42612;52.232;7.560;2023-06-14T09:06:49;25.30;33.50
56729;DHT22;42612;52.232;7.560;2023-06-14T09:09:20;25.30;33.30
56729;DHT22;42612;52.232;7.560;2023-06-14T09:11:49;25.30;33.40
56729;DHT22;42612;52.232;7.560;2023-06-14T09:14:15;25.40;33.50
56729;DHT22;42612;52.232;7.560;2023-06-14T09:16:41;25.40;33.30
56729;DHT22;42612;52.232;7.560;2023-06-14T09:19:06;25.50;33.40
56729;DHT22;42612;52.232;7.560;2023-06-14T09:21:34;25.50;34.40
56729;DHT22;42612;52.232;7.560;2023-06-14T09:24:02;25.50;33.60
56729;DHT22;42612;52.232;7.560;2023-06-14T09:26:29;25.60;33.90
56729;DHT22;42612;52.232;7.560;2023-06-14T09:28:56;25.60;33.80
56729;DHT22;42612;52.232;7.560;2023-06-14T09:31:22;25.70;33.90
56729;DHT22;42612;52.232;7.560;2023-06-14T09:33:49;25.70;33.80
56729;DHT22;42612;52.232;7.560;2023-06-14T09:36:23;25.80;34.00
56729;DHT22;42612;52.232;7.560;2023-06-14T09:39:09;25.80;33.80
56729;DHT22;42612;52.232;7.560;2023-06-14T09:41:36;25.90;33.70
56729;DHT22;42612;52.232;7.560;2023-06-14T09:44:04;26.00;33.80
56729;DHT22;42612;52.232;7.560;2023-06-14T09:46:34;26.00;33.80
56729;DHT22;42612;52.232;7.560;2023-06-14T09:49:02;26.10;33.90
56729;DHT22;42612;52.232;7.560;2023-06-14T09:51:30;26.10;33.90
56729;DHT22;42612;52.232;7.560;2023-06-14T09:54:00;26.20;33.90
56729;DHT22;42612;52.232;7.560;2023-06-14T09:56:32;26.20;33.90
56729;DHT22;42612;52.232;7.560;2023-06-14T09:59:09;26.30;33.90
56729;DHT22;42612;52.232;7.560;2023-06-14T10:01:42;26.30;33.80
56729;DHT22;42612;52.232;7.560;2023-06-14T10:04:09;26.40;33.90
56729;DHT22;42612;52.232;7.560;2023-06-14T10:06:39;26.40;33.90
56729;DHT22;42612;52.232;7.560;2023-06-14T10:09:08;26.50;33.90
56729;DHT22;42612;52.232;7.560;2023-06-14T10:11:36;26.50;33.90
56729;DHT22;42612;52.232;7.560;2023-06-14T10:14:04;26.60;34.00
56729;DHT22;42612;52.232;7.560;2023-06-14T10:16:34;26.70;34.00
56729;DHT22;42612;52.232;7.560;2023-06-14T10:22:11;26.80;33.80
56729;DHT22;42612;52.232;7.560;2023-06-14T10:25:01;26.90;33.80
56729;DHT22;42612;52.232;7.560;2023-06-14T10:27:27;26.90;33.90
56729;DHT22;42612;52.232;7.560;2023-06-14T10:32:18;27.00;33.60
56729;DHT22;42612;52.232;7.560;2023-06-14T10:34:44;27.10;33.70
56729;DHT22;42612;52.232;7.560;2023-06-14T10:37:14;27.10;33.70
56729;DHT22;42612;52.232;7.560;2023-06-14T10:39:44;27.20;33.70
56729;DHT22;42612;52.232;7.560;2023-06-14T10:42:11;27.20;33.40
56729;DHT22;42612;52.232;7.560;2023-06-14T10:44:39;27.20;33.60
56729;DHT22;42612;52.232;7.560;2023-06-14T10:47:33;27.30;33.80
56729;DHT22;42612;52.232;7.560;2023-06-14T10:50:09;27.40;33.40
56729;DHT22;42612;52.232;7.560;2023-06-14T10:52:41;27.40;33.30
56729;DHT22;42612;52.232;7.560;2023-06-14T10:55:14;27.50;33.20
56729;DHT22;42612;52.232;7.560;2023-06-14T11:00:23;27.60;32.90
56729;DHT22;42612;52.232;7.560;2023-06-14T11:05:51;27.80;32.90
56729;DHT22;42612;52.232;7.560;2023-06-14T11:11:06;27.80;32.80
56729;DHT22;42612;52.232;7.560;2023-06-14T11:13:32;27.90;33.00
56729;DHT22;42612;52.232;7.560;2023-06-14T11:15:59;28.00;33.00
56729;DHT22;42612;52.232;7.560;2023-06-14T11:18:25;28.00;32.80
56729;DHT22;42612;52.232;7.560;2023-06-14T11:20:53;28.10;32.80
56729;DHT22;42612;52.232;7.560;2023-06-14T11:23:19;28.10;32.60
56729;DHT22;42612;52.232;7.560;2023-06-14T11:25:51;28.20;32.60
56729;DHT22;42612;52.232;7.560;2023-06-14T11:28:17;28.20;32.30
56729;DHT22;42612;52.232;7.560;2023-06-14T11:30:45;28.30;32.50
56729;DHT22;42612;52.232;7.560;2023-06-14T11:33:15;28.30;32.30
56729;DHT22;42612;52.232;7.560;2023-06-14T11:35:43;28.40;32.40
56729;DHT22;42612;52.232;7.560;2023-06-14T11:38:10;28.40;32.40
56729;DHT22;42612;52.232;7.560;2023-06-14T11:40:38;28.50;32.50
56729;DHT22;42612;52.232;7.560;2023-06-14T11:43:04;28.50;32.30
56729;DHT22;42612;52.232;7.560;2023-06-14T11:45:30;28.60;32.10
56729;DHT22;42612;52.232;7.560;2023-06-14T11:47:57;28.70;32.20
56729;DHT22;42612;52.232;7.560;2023-06-14T11:50:24;28.70;32.10
56729;DHT22;42612;52.232;7.560;2023-06-14T11:52:58;28.80;32.20
56729;DHT22;42612;52.232;7.560;2023-06-14T11:55:29;28.80;32.10
56729;DHT22;42612;52.232;7.560;2023-06-14T11:57:54;28.90;32.00
56729;DHT22;42612;52.232;7.560;2023-06-14T12:00:25;28.90;32.00
56729;DHT22;42612;52.232;7.560;2023-06-14T12:02:54;29.00;31.70
56729;DHT22;42612;52.232;7.560;2023-06-14T12:05:22;29.00;31.50
56729;DHT22;42612;52.232;7.560;2023-06-14T12:07:49;29.10;31.60
56729;DHT22;42612;52.232;7.560;2023-06-14T12:10:15;29.20;31.60
56729;DHT22;42612;52.232;7.560;2023-06-14T12:12:42;29.20;31.60
56729;DHT22;42612;52.232;7.560;2023-06-14T12:15:09;29.30;31.30
56729;DHT22;42612;52.232;7.560;2023-06-14T12:17:37;29.30;31.00
56729;DHT22;42612;52.232;7.560;2023-06-14T12:20:13;29.40;31.10
56729;DHT22;42612;52.232;7.560;2023-06-14T12:23:07;29.40;31.10
56729;DHT22;42612;52.232;7.560;2023-06-14T12:25:35;29.50;30.90
56729;DHT22;42612;52.232;7.560;2023-06-14T12:28:09;29.50;30.80
56729;DHT22;42612;52.232;7.560;2023-06-14T12:30:38;29.60;30.00
56729;DHT22;42612;52.232;7.560;2023-06-14T12:33:04;29.60;30.20
56729;DHT22;42612;52.232;7.560;2023-06-14T12:35:30;29.70;30.40
56729;DHT22;42612;52.232;7.560;2023-06-14T12:37:56;29.70;30.50
56729;DHT22;42612;52.232;7.560;2023-06-14T12:40:22;29.80;30.70
56729;DHT22;42612;52.232;7.560;2023-06-14T12:42:48;29.90;30.50
56729;DHT22;42612;52.232;7.560;2023-06-14T12:45:15;30.00;30.50
56729;DHT22;42612;52.232;7.560;2023-06-14T12:47:41;30.10;30.40
56729;DHT22;42612;52.232;7.560;2023-06-14T12:50:07;30.20;30.40
56729;DHT22;42612;52.232;7.560;2023-06-14T12:52:33;30.20;30.20
56729;DHT22;42612;52.232;7.560;2023-06-14T12:55:05;30.30;30.10
56729;DHT22;42612;52.232;7.560;2023-06-14T12:57:32;30.40;30.10
56729;DHT22;42612;52.232;7.560;2023-06-14T12:59:59;30.40;29.60
56729;DHT22;42612;52.232;7.560;2023-06-14T13:02:25;30.40;29.50
56729;DHT22;42612;52.232;7.560;2023-06-14T13:04:51;30.50;29.50
56729;DHT22;42612;52.232;7.560;2023-06-14T13:07:17;30.50;29.40
56729;DHT22;42612;52.232;7.560;2023-06-14T13:09:43;30.60;29.40
56729;DHT22;42612;52.232;7.560;2023-06-14T13:12:10;30.60;29.40
56729;DHT22;42612;52.232;7.560;2023-06-14T13:14:37;30.60;29.20
56729;DHT22;42612;52.232;7.560;2023-06-14T13:17:04;30.60;29.30
56729;DHT22;42612;52.232;7.560;2023-06-14T13:19:31;30.60;29.40
56729;DHT22;42612;52.232;7.560;2023-06-14T13:21:56;30.70;29.30
56729;DHT22;42612;52.232;7.560;2023-06-14T13:24:22;30.70;29.30
56729;DHT22;42612;52.232;7.560;2023-06-14T13:26:48;30.80;29.30
56729;DHT22;42612;52.232;7.560;2023-06-14T13:29:13;30.80;29.40
56729;DHT22;42612;52.232;7.560;2023-06-14T13:31:39;30.80;29.40
56729;DHT22;42612;52.232;7.560;2023-06-14T13:34:06;30.90;29.40
56729;DHT22;42612;52.232;7.560;2023-06-14T13:36:31;30.90;29.30
56729;DHT22;42612;52.232;7.560;2023-06-14T13:38:57;31.00;29.10
56729;DHT22;42612;52.232;7.560;2023-06-14T13:41:26;31.00;29.10
56729;DHT22;42612;52.232;7.560;2023-06-14T13:43:57;31.10;29.00
56729;DHT22;42612;52.232;7.560;2023-06-14T13:46:23;31.10;29.00
56729;DHT22;42612;52.232;7.560;2023-06-14T13:48:49;31.20;29.20
56729;DHT22;42612;52.232;7.560;2023-06-14T13:51:15;31.30;29.30
56729;DHT22;42612;52.232;7.560;2023-06-14T13:53:43;31.30;29.10
56729;DHT22;42612;52.232;7.560;2023-06-14T13:56:09;31.40;29.00
56729;DHT22;42612;52.232;7.560;2023-06-14T13:58:34;31.40;28.90
56729;DHT22;42612;52.232;7.560;2023-06-14T14:01:00;31.40;28.80
56729;DHT22;42612;52.232;7.560;2023-06-14T14:03:27;31.40;29.40
56729;DHT22;42612;52.232;7.560;2023-06-14T14:05:52;31.40;28.80
56729;DHT22;42612;52.232;7.560;2023-06-14T14:08:18;31.40;28.80
56729;DHT22;42612;52.232;7.560;2023-06-14T14:10:44;31.40;29.00
56729;DHT22;42612;52.232;7.560;2023-06-14T14:13:09;31.50;29.50
56729;DHT22;42612;52.232;7.560;2023-06-14T14:15:35;31.50;28.70
56729;DHT22;42612;52.232;7.560;2023-06-14T14:18:01;31.50;28.70
56729;DHT22;42612;52.232;7.560;2023-06-14T14:20:29;31.60;28.70
56729;DHT22;42612;52.232;7.560;2023-06-14T14:22:55;31.60;28.70
56729;DHT22;42612;52.232;7.560;2023-06-14T14:25:21;31.60;28.70
56729;DHT22;42612;52.232;7.560;2023-06-14T14:27:47;31.70;28.80
56729;DHT22;42612;52.232;7.560;2023-06-14T14:30:13;31.70;28.80
56729;DHT22;42612;52.232;7.560;2023-06-14T14:32:42;31.70;28.80
56729;DHT22;42612;52.232;7.560;2023-06-14T14:35:09;31.80;28.60
56729;DHT22;42612;52.232;7.560;2023-06-14T14:37:36;31.80;28.40
56729;DHT22;42612;52.232;7.560;2023-06-14T14:40:01;31.80;28.50
56729;DHT22;42612;52.232;7.560;2023-06-14T14:42:31;31.70;28.50
56729;DHT22;42612;52.232;7.560;2023-06-14T14:44:57;31.70;28.60
56729;DHT22;42612;52.232;7.560;2023-06-14T14:47:23;31.70;28.60
56729;DHT22;42612;52.232;7.560;2023-06-14T14:49:49;31.70;28.60
56729;DHT22;42612;52.232;7.560;2023-06-14T14:52:15;31.70;28.60
56729;DHT22;42612;52.232;7.560;2023-06-14T14:54:40;31.70;28.60
56729;DHT22;42612;52.232;7.560;2023-06-14T14:57:06;31.70;28.60
56729;DHT22;42612;52.232;7.560;2023-06-14T14:59:32;31.80;28.70
56729;DHT22;42612;52.232;7.560;2023-06-14T15:01:57;31.80;28.70
56729;DHT22;42612;52.232;7.560;2023-06-14T15:04:23;31.80;28.70
56729;DHT22;42612;52.232;7.560;2023-06-14T15:06:49;31.90;28.70
56729;DHT22;42612;52.232;7.560;2023-06-14T15:09:15;31.90;28.70
56729;DHT22;42612;52.232;7.560;2023-06-14T15:11:40;32.00;28.70
56729;DHT22;42612;52.232;7.560;2023-06-14T15:14:08;32.00;28.50
56729;DHT22;42612;52.232;7.560;2023-06-14T15:16:34;32.00;28.50
56729;DHT22;42612;52.232;7.560;2023-06-14T15:19:00;32.10;28.50
56729;DHT22;42612;52.232;7.560;2023-06-14T15:21:28;32.10;28.40
56729;DHT22;42612;52.232;7.560;2023-06-14T15:23:54;32.20;28.40
56729;DHT22;42612;52.232;7.560;2023-06-14T15:26:20;32.20;28.40
56729;DHT22;42612;52.232;7.560;2023-06-14T15:28:46;32.20;28.40
56729;DHT22;42612;52.232;7.560;2023-06-14T15:31:11;32.20;28.20
56729;DHT22;42612;52.232;7.560;2023-06-14T15:33:37;32.20;28.20
56729;DHT22;42612;52.232;7.560;2023-06-14T15:36:03;32.30;28.20
56729;DHT22;42612;52.232;7.560;2023-06-14T15:38:31;32.30;28.20
56729;DHT22;42612;52.232;7.560;2023-06-14T15:40:57;32.20;28.00
56729;DHT22;42612;52.232;7.560;2023-06-14T15:43:23;32.20;28.00
56729;DHT22;42612;52.232;7.560;2023-06-14T15:45:49;32.20;28.00